sensor_id;sensor_type;location;lat;lon;timestamp;P1;durP1;ratioP1;P2;durP2;ratioP2
67352;SDS011;54238;52.278;21.056;2023-03-01T00:01:28;71.30;;;30.00;;
67352;SDS011;54238;52.278;21.056;2023-03-01T00:03:59;70.80;;;29.90;;
67352;SDS011;54238;52.278;21.056;2023-03-01T00:06:27;68.80;;;29.90;;
67352;SDS011;54238;52.278;21.056;2023-03-01T00:08:56;71.80;;;30.50;;
67352;SDS011;54238;52.278;21.056;2023-03-01T00:11:28;64.90;;;26.40;;
67352;SDS011;54238;52.278;21.056;2023-03-01T00:14:01;64.30;;;27.30;;
67352;SDS011;54238;52.278;21.056;2023-03-01T00:16:41;104.30;;;39.70;;
67352;SDS011;54238;52.278;21.056;2023-03-01T00:19:15;63.00;;;27.60;;
67352;SDS011;54238;52.278;21.056;2023-03-01T00:21:49;71.50;;;31.70;;
67352;SDS011;54238;52.278;21.056;2023-03-01T00:24:18;63.50;;;27.10;;
67352;SDS011;54238;52.278;21.056;2023-03-01T00:26:48;68.70;;;29.40;;
67352;SDS011;54238;52.278;21.056;2023-03-01T00:29:24;70.50;;;29.70;;
67352;SDS011;54238;52.278;21.056;2023-03-01T00:31:59;58.50;;;27.90;;
67352;SDS011;54238;52.278;21.056;2023-03-01T00:37:00;69.90;;;29.60;;
67352;SDS011;54238;52.278;21.056;2023-03-01T00:39:35;71.20;;;29.80;;
67352;SDS011;54238;52.278;21.056;2023-03-01T00:42:04;70.10;;;29.10;;
67352;SDS011;54238;52.278;21.056;2023-03-01T00:44:36;64.20;;;27.50;;
67352;SDS011;54238;52.278;21.056;2023-03-01T00:47:08;55.50;;;23.80;;
67352;SDS011;54238;52.278;21.056;2023-03-01T00:49:38;69.40;;;32.30;;
67352;SDS011;54238;52.278;21.056;2023-03-01T00:52:09;85.20;;;34.40;;
67352;SDS011;54238;52.278;21.056;2023-03-01T00:57:06;63.90;;;27.30;;
67352;SDS011;54238;52.278;21.056;2023-03-01T00:59:35;64.20;;;26.80;;
67352;SDS011;54238;52.278;21.056;2023-03-01T01:02:04;87.90;;;37.40;;
67352;SDS011;54238;52.278;21.056;2023-03-01T01:04:36;77.80;;;32.30;;
67352;SDS011;54238;52.278;21.056;2023-03-01T01:07:05;83.50;;;36.90;;
67352;SDS011;54238;52.278;21.056;2023-03-01T01:09:35;91.60;;;37.90;;
67352;SDS011;54238;52.278;21.056;2023-03-01T01:12:05;84.30;;;35.30;;
67352;SDS011;54238;52.278;21.056;2023-03-01T01:14:38;74.30;;;32.90;;
67352;SDS011;54238;52.278;21.056;2023-03-01T01:17:11;78.50;;;32.90;;
67352;SDS011;54238;52.278;21.056;2023-03-01T01:19:40;71.90;;;31.30;;
67352;SDS011;54238;52.278;21.056;2023-03-01T01:22:10;76.40;;;30.50;;
67352;SDS011;54238;52.278;21.056;2023-03-01T01:24:44;73.30;;;33.70;;
67352;SDS011;54238;52.278;21.056;2023-03-01T01:27:16;70.90;;;32.50;;
67352;SDS011;54238;52.278;21.056;2023-03-01T01:29:43;79.90;;;36.10;;
67352;SDS011;54238;52.278;21.056;2023-03-01T01:32:15;87.40;;;34.00;;
67352;SDS011;54238;52.278;21.056;2023-03-01T01:34:42;58.90;;;27.20;;
67352;SDS011;54238;52.278;21.056;2023-03-01T01:37:12;52.00;;;24.40;;
67352;SDS011;54238;52.278;21.056;2023-03-01T01:39:43;47.30;;;23.00;;
67352;SDS011;54238;52.278;21.056;2023-03-01T01:42:19;78.80;;;33.00;;
67352;SDS011;54238;52.278;21.056;2023-03-01T01:47:59;57.10;;;24.60;;
67352;SDS011;54238;52.278;21.056;2023-03-01T01:50:37;59.40;;;28.10;;
67352;SDS011;54238;52.278;21.056;2023-03-01T01:53:12;69.60;;;30.80;;
67352;SDS011;54238;52.278;21.056;2023-03-01T01:55:53;55.00;;;24.30;;
67352;SDS011;54238;52.278;21.056;2023-03-01T01:58:29;52.50;;;22.90;;
67352;SDS011;54238;52.278;21.056;2023-03-01T02:00:57;51.30;;;24.90;;
67352;SDS011;54238;52.278;21.056;2023-03-01T02:03:31;74.20;;;30.90;;
67352;SDS011;54238;52.278;21.056;2023-03-01T02:06:11;61.60;;;29.60;;
67352;SDS011;54238;52.278;21.056;2023-03-01T02:08:48;52.80;;;23.10;;
67352;SDS011;54238;52.278;21.056;2023-03-01T02:11:22;62.40;;;25.60;;
67352;SDS011;54238;52.278;21.056;2023-03-01T02:13:55;60.90;;;24.30;;
67352;SDS011;54238;52.278;21.056;2023-03-01T02:16:22;67.30;;;30.20;;
67352;SDS011;54238;52.278;21.056;2023-03-01T02:18:52;51.70;;;23.70;;
67352;SDS011;54238;52.278;21.056;2023-03-01T02:21:37;33.30;;;15.70;;
67352;SDS011;54238;52.278;21.056;2023-03-01T02:27:12;59.00;;;26.80;;
67352;SDS011;54238;52.278;21.056;2023-03-01T02:29:40;50.00;;;22.00;;
67352;SDS011;54238;52.278;21.056;2023-03-01T02:32:14;54.30;;;26.40;;
67352;SDS011;54238;52.278;21.056;2023-03-01T02:34:41;58.70;;;26.10;;
67352;SDS011;54238;52.278;21.056;2023-03-01T02:37:15;72.50;;;31.40;;
67352;SDS011;54238;52.278;21.056;2023-03-01T02:39:48;77.10;;;31.20;;
67352;SDS011;54238;52.278;21.056;2023-03-01T02:42:30;74.10;;;31.00;;
67352;SDS011;54238;52.278;21.056;2023-03-01T02:45:05;49.30;;;21.30;;
67352;SDS011;54238;52.278;21.056;2023-03-01T02:47:37;65.80;;;30.60;;
67352;SDS011;54238;52.278;21.056;2023-03-01T02:53:27;57.00;;;23.00;;
67352;SDS011;54238;52.278;21.056;2023-03-01T02:56:16;41.90;;;19.90;;
67352;SDS011;54238;52.278;21.056;2023-03-01T02:58:46;64.10;;;28.30;;
67352;SDS011;54238;52.278;21.056;2023-03-01T03:01:19;74.60;;;29.40;;
67352;SDS011;54238;52.278;21.056;2023-03-01T03:03:47;71.10;;;26.70;;
67352;SDS011;54238;52.278;21.056;2023-03-01T03:06:16;70.70;;;28.40;;
67352;SDS011;54238;52.278;21.056;2023-03-01T03:08:49;64.40;;;28.10;;
67352;SDS011;54238;52.278;21.056;2023-03-01T03:11:18;45.80;;;22.20;;
67352;SDS011;54238;52.278;21.056;2023-03-01T03:13:48;61.60;;;27.00;;
67352;SDS011;54238;52.278;21.056;2023-03-01T03:16:15;57.70;;;24.30;;
67352;SDS011;54238;52.278;21.056;2023-03-01T03:18:44;72.60;;;27.30;;
67352;SDS011;54238;52.278;21.056;2023-03-01T03:21:15;65.70;;;28.80;;
67352;SDS011;54238;52.278;21.056;2023-03-01T03:23:48;54.00;;;27.10;;
67352;SDS011;54238;52.278;21.056;2023-03-01T03:26:20;67.70;;;27.90;;
67352;SDS011;54238;52.278;21.056;2023-03-01T03:28:47;66.40;;;29.40;;
67352;SDS011;54238;52.278;21.056;2023-03-01T03:31:14;71.50;;;31.10;;
67352;SDS011;54238;52.278;21.056;2023-03-01T03:33:46;52.30;;;23.50;;
67352;SDS011;54238;52.278;21.056;2023-03-01T03:36:21;46.70;;;21.50;;
67352;SDS011;54238;52.278;21.056;2023-03-01T03:38:52;56.60;;;21.80;;
67352;SDS011;54238;52.278;21.056;2023-03-01T03:41:24;58.20;;;25.10;;
67352;SDS011;54238;52.278;21.056;2023-03-01T03:43:54;42.90;;;20.70;;
67352;SDS011;54238;52.278;21.056;2023-03-01T03:46:21;61.80;;;29.30;;
67352;SDS011;54238;52.278;21.056;2023-03-01T03:48:51;44.80;;;21.50;;
67352;SDS011;54238;52.278;21.056;2023-03-01T03:51:20;67.60;;;30.00;;
67352;SDS011;54238;52.278;21.056;2023-03-01T03:53:52;48.30;;;20.50;;
67352;SDS011;54238;52.278;21.056;2023-03-01T03:56:21;70.30;;;30.30;;
67352;SDS011;54238;52.278;21.056;2023-03-01T03:58:52;51.50;;;24.20;;
67352;SDS011;54238;52.278;21.056;2023-03-01T04:01:20;72.90;;;31.90;;
67352;SDS011;54238;52.278;21.056;2023-03-01T04:03:50;55.90;;;24.40;;
67352;SDS011;54238;52.278;21.056;2023-03-01T04:06:21;50.90;;;21.20;;
67352;SDS011;54238;52.278;21.056;2023-03-01T04:08:48;71.10;;;31.80;;
67352;SDS011;54238;52.278;21.056;2023-03-01T04:11:27;76.80;;;30.20;;
67352;SDS011;54238;52.278;21.056;2023-03-01T04:13:57;79.00;;;31.40;;
67352;SDS011;54238;52.278;21.056;2023-03-01T04:19:00;68.70;;;27.90;;
67352;SDS011;54238;52.278;21.056;2023-03-01T04:21:29;75.30;;;31.20;;
67352;SDS011;54238;52.278;21.056;2023-03-01T04:23:56;76.70;;;34.00;;
67352;SDS011;54238;52.278;21.056;2023-03-01T04:26:24;64.40;;;25.70;;
67352;SDS011;54238;52.278;21.056;2023-03-01T04:28:53;73.30;;;31.80;;
67352;SDS011;54238;52.278;21.056;2023-03-01T04:31:21;68.90;;;30.80;;
67352;SDS011;54238;52.278;21.056;2023-03-01T04:33:53;72.30;;;30.50;;
67352;SDS011;54238;52.278;21.056;2023-03-01T04:38:57;43.10;;;19.20;;
67352;SDS011;54238;52.278;21.056;2023-03-01T04:41:25;66.80;;;27.70;;
67352;SDS011;54238;52.278;21.056;2023-03-01T04:43:53;67.60;;;29.60;;
67352;SDS011;54238;52.278;21.056;2023-03-01T04:46:23;86.30;;;32.50;;
67352;SDS011;54238;52.278;21.056;2023-03-01T04:48:53;70.40;;;28.40;;
67352;SDS011;54238;52.278;21.056;2023-03-01T04:51:23;83.10;;;32.60;;
67352;SDS011;54238;52.278;21.056;2023-03-01T04:53:54;108.20;;;38.90;;
67352;SDS011;54238;52.278;21.056;2023-03-01T04:56:24;106.20;;;39.80;;
67352;SDS011;54238;52.278;21.056;2023-03-01T04:58:53;112.40;;;40.60;;
67352;SDS011;54238;52.278;21.056;2023-03-01T05:01:21;88.70;;;35.20;;
67352;SDS011;54238;52.278;21.056;2023-03-01T05:03:52;91.30;;;36.50;;
67352;SDS011;54238;52.278;21.056;2023-03-01T05:06:21;81.80;;;33.40;;
67352;SDS011;54238;52.278;21.056;2023-03-01T05:08:51;78.60;;;30.80;;
67352;SDS011;54238;52.278;21.056;2023-03-01T05:11:22;89.00;;;33.80;;
67352;SDS011;54238;52.278;21.056;2023-03-01T05:13:49;65.00;;;23.80;;
67352;SDS011;54238;52.278;21.056;2023-03-01T05:16:22;50.10;;;22.30;;
67352;SDS011;54238;52.278;21.056;2023-03-01T05:18:51;85.60;;;32.30;;
67352;SDS011;54238;52.278;21.056;2023-03-01T05:21:22;93.80;;;34.40;;
67352;SDS011;54238;52.278;21.056;2023-03-01T05:23:51;80.10;;;30.60;;
67352;SDS011;54238;52.278;21.056;2023-03-01T05:26:23;106.20;;;37.60;;
67352;SDS011;54238;52.278;21.056;2023-03-01T05:28:55;97.70;;;36.80;;
67352;SDS011;54238;52.278;21.056;2023-03-01T05:31:27;75.60;;;30.10;;
67352;SDS011;54238;52.278;21.056;2023-03-01T05:33:59;78.90;;;32.90;;
67352;SDS011;54238;52.278;21.056;2023-03-01T05:36:27;75.50;;;33.50;;
67352;SDS011;54238;52.278;21.056;2023-03-01T05:38:54;90.40;;;36.40;;
67352;SDS011;54238;52.278;21.056;2023-03-01T05:41:28;61.70;;;26.40;;
67352;SDS011;54238;52.278;21.056;2023-03-01T05:43:56;84.40;;;34.30;;
67352;SDS011;54238;52.278;21.056;2023-03-01T05:46:23;95.50;;;37.40;;
67352;SDS011;54238;52.278;21.056;2023-03-01T05:48:51;96.80;;;38.80;;
67352;SDS011;54238;52.278;21.056;2023-03-01T05:51:20;86.80;;;36.50;;
67352;SDS011;54238;52.278;21.056;2023-03-01T05:53:51;92.00;;;37.10;;
67352;SDS011;54238;52.278;21.056;2023-03-01T05:56:24;80.20;;;34.00;;
67352;SDS011;54238;52.278;21.056;2023-03-01T05:58:51;72.30;;;30.90;;
67352;SDS011;54238;52.278;21.056;2023-03-01T06:01:28;62.00;;;28.60;;
67352;SDS011;54238;52.278;21.056;2023-03-01T06:03:55;81.10;;;35.60;;
67352;SDS011;54238;52.278;21.056;2023-03-01T06:09:25;56.60;;;25.00;;
67352;SDS011;54238;52.278;21.056;2023-03-01T06:11:52;69.30;;;29.90;;
67352;SDS011;54238;52.278;21.056;2023-03-01T06:14:24;89.80;;;38.30;;
67352;SDS011;54238;52.278;21.056;2023-03-01T06:16:55;87.50;;;36.50;;
67352;SDS011;54238;52.278;21.056;2023-03-01T06:19:31;86.50;;;34.90;;
67352;SDS011;54238;52.278;21.056;2023-03-01T06:22:00;82.80;;;35.60;;
67352;SDS011;54238;52.278;21.056;2023-03-01T06:24:31;58.50;;;26.40;;
67352;SDS011;54238;52.278;21.056;2023-03-01T06:27:03;76.30;;;35.60;;
67352;SDS011;54238;52.278;21.056;2023-03-01T06:29:30;82.60;;;35.00;;
67352;SDS011;54238;52.278;21.056;2023-03-01T06:32:02;75.50;;;34.00;;
67352;SDS011;54238;52.278;21.056;2023-03-01T06:34:37;81.70;;;34.00;;
67352;SDS011;54238;52.278;21.056;2023-03-01T06:37:09;87.70;;;35.70;;
67352;SDS011;54238;52.278;21.056;2023-03-01T06:39:39;70.40;;;31.50;;
67352;SDS011;54238;52.278;21.056;2023-03-01T06:42:07;69.30;;;31.50;;
67352;SDS011;54238;52.278;21.056;2023-03-01T06:44:37;61.90;;;26.00;;
67352;SDS011;54238;52.278;21.056;2023-03-01T06:47:04;66.80;;;26.80;;
67352;SDS011;54238;52.278;21.056;2023-03-01T06:49:38;87.20;;;35.80;;
67352;SDS011;54238;52.278;21.056;2023-03-01T06:52:08;58.90;;;26.50;;
67352;SDS011;54238;52.278;21.056;2023-03-01T06:54:42;73.30;;;32.20;;
67352;SDS011;54238;52.278;21.056;2023-03-01T06:57:09;73.40;;;29.30;;
67352;SDS011;54238;52.278;21.056;2023-03-01T06:59:38;75.30;;;34.10;;
67352;SDS011;54238;52.278;21.056;2023-03-01T07:02:06;70.00;;;30.40;;
67352;SDS011;54238;52.278;21.056;2023-03-01T07:04:35;63.80;;;28.60;;
67352;SDS011;54238;52.278;21.056;2023-03-01T07:07:02;49.40;;;24.70;;
67352;SDS011;54238;52.278;21.056;2023-03-01T07:09:29;55.60;;;26.80;;
67352;SDS011;54238;52.278;21.056;2023-03-01T07:12:01;65.60;;;28.20;;
67352;SDS011;54238;52.278;21.056;2023-03-01T07:14:31;56.70;;;23.60;;
67352;SDS011;54238;52.278;21.056;2023-03-01T07:16:58;64.30;;;29.80;;
67352;SDS011;54238;52.278;21.056;2023-03-01T07:19:25;72.00;;;32.50;;
67352;SDS011;54238;52.278;21.056;2023-03-01T07:21:52;54.50;;;21.80;;
67352;SDS011;54238;52.278;21.056;2023-03-01T07:24:22;76.80;;;30.80;;
67352;SDS011;54238;52.278;21.056;2023-03-01T07:26:50;54.20;;;27.20;;
67352;SDS011;54238;52.278;21.056;2023-03-01T07:29:20;49.70;;;21.90;;
67352;SDS011;54238;52.278;21.056;2023-03-01T07:31:50;44.00;;;17.40;;
67352;SDS011;54238;52.278;21.056;2023-03-01T07:34:22;49.90;;;22.40;;
67352;SDS011;54238;52.278;21.056;2023-03-01T07:36:52;59.30;;;26.40;;
67352;SDS011;54238;52.278;21.056;2023-03-01T07:39:24;50.60;;;22.80;;
67352;SDS011;54238;52.278;21.056;2023-03-01T07:41:54;57.20;;;26.40;;
67352;SDS011;54238;52.278;21.056;2023-03-01T07:44:26;30.20;;;14.50;;
67352;SDS011;54238;52.278;21.056;2023-03-01T07:46:55;49.20;;;20.70;;
67352;SDS011;54238;52.278;21.056;2023-03-01T07:49:25;48.30;;;21.80;;
67352;SDS011;54238;52.278;21.056;2023-03-01T07:51:58;58.80;;;26.30;;
67352;SDS011;54238;52.278;21.056;2023-03-01T07:54:28;44.30;;;21.20;;
67352;SDS011;54238;52.278;21.056;2023-03-01T07:56:58;41.30;;;18.70;;
67352;SDS011;54238;52.278;21.056;2023-03-01T07:59:26;48.30;;;23.70;;
67352;SDS011;54238;52.278;21.056;2023-03-01T08:01:56;40.10;;;19.30;;
67352;SDS011;54238;52.278;21.056;2023-03-01T08:04:24;43.50;;;19.00;;
67352;SDS011;54238;52.278;21.056;2023-03-01T08:06:55;35.50;;;17.40;;
67352;SDS011;54238;52.278;21.056;2023-03-01T08:09:29;45.00;;;19.20;;
67352;SDS011;54238;52.278;21.056;2023-03-01T08:11:58;48.50;;;23.00;;
67352;SDS011;54238;52.278;21.056;2023-03-01T08:14:34;36.20;;;17.20;;
67352;SDS011;54238;52.278;21.056;2023-03-01T08:17:01;41.40;;;18.60;;
67352;SDS011;54238;52.278;21.056;2023-03-01T08:19:30;42.20;;;20.60;;
67352;SDS011;54238;52.278;21.056;2023-03-01T08:21:57;43.40;;;21.80;;
67352;SDS011;54238;52.278;21.056;2023-03-01T08:24:30;45.00;;;18.70;;
67352;SDS011;54238;52.278;21.056;2023-03-01T08:26:59;38.10;;;18.50;;
67352;SDS011;54238;52.278;21.056;2023-03-01T08:29:26;39.30;;;19.90;;
67352;SDS011;54238;52.278;21.056;2023-03-01T08:31:53;34.20;;;17.10;;
67352;SDS011;54238;52.278;21.056;2023-03-01T08:34:26;40.80;;;19.70;;
67352;SDS011;54238;52.278;21.056;2023-03-01T08:36:55;40.10;;;19.40;;
67352;SDS011;54238;52.278;21.056;2023-03-01T08:39:25;34.10;;;18.00;;
67352;SDS011;54238;52.278;21.056;2023-03-01T08:41:52;33.70;;;17.20;;
67352;SDS011;54238;52.278;21.056;2023-03-01T08:44:19;39.80;;;17.40;;
67352;SDS011;54238;52.278;21.056;2023-03-01T08:46:53;37.00;;;19.00;;
67352;SDS011;54238;52.278;21.056;2023-03-01T08:49:27;55.00;;;23.20;;
67352;SDS011;54238;52.278;21.056;2023-03-01T08:51:54;29.70;;;15.80;;
67352;SDS011;54238;52.278;21.056;2023-03-01T08:54:29;31.40;;;15.90;;
67352;SDS011;54238;52.278;21.056;2023-03-01T08:57:03;33.10;;;16.30;;
67352;SDS011;54238;52.278;21.056;2023-03-01T08:59:30;36.00;;;18.50;;
67352;SDS011;54238;52.278;21.056;2023-03-01T09:02:11;43.10;;;18.30;;
67352;SDS011;54238;52.278;21.056;2023-03-01T09:04:41;38.60;;;19.00;;
67352;SDS011;54238;52.278;21.056;2023-03-01T09:07:10;37.70;;;18.70;;
67352;SDS011;54238;52.278;21.056;2023-03-01T09:09:37;42.60;;;19.20;;
67352;SDS011;54238;52.278;21.056;2023-03-01T09:12:05;34.70;;;17.10;;
67352;SDS011;54238;52.278;21.056;2023-03-01T09:14:34;35.10;;;16.70;;
67352;SDS011;54238;52.278;21.056;2023-03-01T09:17:04;29.10;;;16.20;;
67352;SDS011;54238;52.278;21.056;2023-03-01T09:19:31;32.10;;;14.60;;
67352;SDS011;54238;52.278;21.056;2023-03-01T09:21:58;28.60;;;14.80;;
67352;SDS011;54238;52.278;21.056;2023-03-01T09:24:28;27.90;;;14.10;;
67352;SDS011;54238;52.278;21.056;2023-03-01T09:26:58;34.80;;;18.60;;
67352;SDS011;54238;52.278;21.056;2023-03-01T09:29:27;33.50;;;17.70;;
67352;SDS011;54238;52.278;21.056;2023-03-01T09:31:54;36.10;;;17.30;;
67352;SDS011;54238;52.278;21.056;2023-03-01T09:34:22;38.90;;;19.60;;
67352;SDS011;54238;52.278;21.056;2023-03-01T09:36:50;31.60;;;17.30;;
67352;SDS011;54238;52.278;21.056;2023-03-01T09:39:20;32.50;;;17.90;;
67352;SDS011;54238;52.278;21.056;2023-03-01T09:42:02;39.20;;;17.40;;
67352;SDS011;54238;52.278;21.056;2023-03-01T09:44:42;42.20;;;18.20;;
67352;SDS011;54238;52.278;21.056;2023-03-01T09:47:18;38.00;;;18.60;;
67352;SDS011;54238;52.278;21.056;2023-03-01T09:52:40;33.00;;;16.80;;
67352;SDS011;54238;52.278;21.056;2023-03-01T09:55:29;25.50;;;14.00;;
67352;SDS011;54238;52.278;21.056;2023-03-01T09:58:39;26.40;;;15.90;;
67352;SDS011;54238;52.278;21.056;2023-03-01T10:04:24;24.60;;;13.50;;
67352;SDS011;54238;52.278;21.056;2023-03-01T10:10:06;26.80;;;13.80;;
67352;SDS011;54238;52.278;21.056;2023-03-01T10:12:41;27.00;;;15.10;;
67352;SDS011;54238;52.278;21.056;2023-03-01T10:15:25;24.90;;;14.00;;
67352;SDS011;54238;52.278;21.056;2023-03-01T10:18:11;26.40;;;15.60;;
67352;SDS011;54238;52.278;21.056;2023-03-01T10:20:52;26.00;;;15.20;;
67352;SDS011;54238;52.278;21.056;2023-03-01T10:23:32;27.00;;;16.20;;
67352;SDS011;54238;52.278;21.056;2023-03-01T10:31:39;34.80;;;21.20;;
67352;SDS011;54238;52.278;21.056;2023-03-01T10:36:53;35.30;;;20.40;;
67352;SDS011;54238;52.278;21.056;2023-03-01T10:39:25;33.60;;;20.00;;
67352;SDS011;54238;52.278;21.056;2023-03-01T10:42:03;33.20;;;20.00;;
67352;SDS011;54238;52.278;21.056;2023-03-01T10:44:37;37.50;;;20.70;;
67352;SDS011;54238;52.278;21.056;2023-03-01T10:47:23;38.60;;;21.80;;
67352;SDS011;54238;52.278;21.056;2023-03-01T10:50:04;35.20;;;19.80;;
67352;SDS011;54238;52.278;21.056;2023-03-01T10:53:26;38.80;;;20.70;;
67352;SDS011;54238;52.278;21.056;2023-03-01T10:56:15;36.20;;;21.40;;
67352;SDS011;54238;52.278;21.056;2023-03-01T10:59:03;31.60;;;18.10;;
67352;SDS011;54238;52.278;21.056;2023-03-01T11:01:35;31.20;;;19.10;;
67352;SDS011;54238;52.278;21.056;2023-03-01T11:06:41;33.60;;;19.00;;
67352;SDS011;54238;52.278;21.056;2023-03-01T11:09:24;27.70;;;16.90;;
67352;SDS011;54238;52.278;21.056;2023-03-01T11:11:59;32.50;;;19.70;;
67352;SDS011;54238;52.278;21.056;2023-03-01T11:14:37;28.10;;;17.40;;
67352;SDS011;54238;52.278;21.056;2023-03-01T11:17:30;28.10;;;17.50;;
67352;SDS011;54238;52.278;21.056;2023-03-01T11:22:51;21.70;;;14.90;;
67352;SDS011;54238;52.278;21.056;2023-03-01T11:25:26;25.30;;;16.30;;
67352;SDS011;54238;52.278;21.056;2023-03-01T11:28:05;25.70;;;15.50;;
67352;SDS011;54238;52.278;21.056;2023-03-01T11:33:48;26.80;;;15.80;;
67352;SDS011;54238;52.278;21.056;2023-03-01T11:39:31;20.90;;;11.80;;
67352;SDS011;54238;52.278;21.056;2023-03-01T11:45:18;16.90;;;10.80;;
67352;SDS011;54238;52.278;21.056;2023-03-01T11:50:52;17.10;;;10.40;;
67352;SDS011;54238;52.278;21.056;2023-03-01T12:11:01;16.40;;;10.40;;
67352;SDS011;54238;52.278;21.056;2023-03-01T12:22:31;17.80;;;11.90;;
67352;SDS011;54238;52.278;21.056;2023-03-01T12:28:40;19.40;;;11.70;;
67352;SDS011;54238;52.278;21.056;2023-03-01T12:45:48;18.80;;;13.10;;
67352;SDS011;54238;52.278;21.056;2023-03-01T12:48:51;17.80;;;12.70;;
67352;SDS011;54238;52.278;21.056;2023-03-01T12:51:26;18.80;;;13.60;;
67352;SDS011;54238;52.278;21.056;2023-03-01T12:53:58;17.90;;;11.80;;
67352;SDS011;54238;52.278;21.056;2023-03-01T12:56:35;17.10;;;13.20;;
67352;SDS011;54238;52.278;21.056;2023-03-01T13:02:34;21.50;;;13.40;;
67352;SDS011;54238;52.278;21.056;2023-03-01T13:09:14;22.50;;;14.70;;
67352;SDS011;54238;52.278;21.056;2023-03-01T13:11:24;18.00;;;12.20;;
67352;SDS011;54238;52.278;21.056;2023-03-01T13:16:52;19.20;;;12.60;;
67352;SDS011;54238;52.278;21.056;2023-03-01T13:21:58;22.20;;;13.40;;
67352;SDS011;54238;52.278;21.056;2023-03-01T13:29:57;16.10;;;11.70;;
67352;SDS011;54238;52.278;21.056;2023-03-01T13:36:02;16.60;;;11.80;;
67352;SDS011;54238;52.278;21.056;2023-03-01T13:49:51;17.10;;;12.90;;
67352;SDS011;54238;52.278;21.056;2023-03-01T13:55:36;18.60;;;12.40;;
67352;SDS011;54238;52.278;21.056;2023-03-01T13:58:25;18.20;;;13.60;;
67352;SDS011;54238;52.278;21.056;2023-03-01T14:01:06;18.70;;;13.20;;
67352;SDS011;54238;52.278;21.056;2023-03-01T14:03:52;18.40;;;13.60;;
67352;SDS011;54238;52.278;21.056;2023-03-01T14:06:28;16.30;;;12.70;;
67352;SDS011;54238;52.278;21.056;2023-03-01T14:17:44;20.00;;;13.60;;
67352;SDS011;54238;52.278;21.056;2023-03-01T14:20:38;17.60;;;14.10;;
67352;SDS011;54238;52.278;21.056;2023-03-01T14:23:14;16.80;;;13.50;;
67352;SDS011;54238;52.278;21.056;2023-03-01T14:25:53;19.40;;;14.00;;
67352;SDS011;54238;52.278;21.056;2023-03-01T14:28:32;23.80;;;15.30;;
67352;SDS011;54238;52.278;21.056;2023-03-01T14:31:39;23.20;;;15.00;;
67352;SDS011;54238;52.278;21.056;2023-03-01T14:34:19;19.90;;;13.70;;
67352;SDS011;54238;52.278;21.056;2023-03-01T14:36:51;21.40;;;15.50;;
67352;SDS011;54238;52.278;21.056;2023-03-01T14:39:20;19.80;;;15.60;;
67352;SDS011;54238;52.278;21.056;2023-03-01T14:41:52;19.60;;;14.80;;
67352;SDS011;54238;52.278;21.056;2023-03-01T14:44:24;20.60;;;15.50;;
67352;SDS011;54238;52.278;21.056;2023-03-01T14:46:54;22.00;;;15.20;;
67352;SDS011;54238;52.278;21.056;2023-03-01T14:49:30;22.90;;;16.20;;
67352;SDS011;54238;52.278;21.056;2023-03-01T14:52:07;25.20;;;15.70;;
67352;SDS011;54238;52.278;21.056;2023-03-01T14:54:54;28.00;;;15.80;;
67352;SDS011;54238;52.278;21.056;2023-03-01T14:57:24;24.90;;;16.30;;
67352;SDS011;54238;52.278;21.056;2023-03-01T14:59:59;21.50;;;16.00;;
67352;SDS011;54238;52.278;21.056;2023-03-01T15:02:36;23.40;;;16.40;;
67352;SDS011;54238;52.278;21.056;2023-03-01T15:05:07;22.20;;;16.10;;
67352;SDS011;54238;52.278;21.056;2023-03-01T15:07:42;22.10;;;15.80;;
67352;SDS011;54238;52.278;21.056;2023-03-01T15:10:37;26.30;;;17.20;;
67352;SDS011;54238;52.278;21.056;2023-03-01T15:13:14;33.90;;;17.30;;
67352;SDS011;54238;52.278;21.056;2023-03-01T15:16:05;26.90;;;17.10;;
67352;SDS011;54238;52.278;21.056;2023-03-01T15:18:36;30.50;;;17.30;;
67352;SDS011;54238;52.278;21.056;2023-03-01T15:23:57;31.80;;;17.70;;
67352;SDS011;54238;52.278;21.056;2023-03-01T15:26:41;29.00;;;17.80;;
67352;SDS011;54238;52.278;21.056;2023-03-01T15:29:18;26.40;;;15.80;;
67352;SDS011;54238;52.278;21.056;2023-03-01T15:32:04;25.90;;;18.10;;
67352;SDS011;54238;52.278;21.056;2023-03-01T15:34:38;26.80;;;18.00;;
67352;SDS011;54238;52.278;21.056;2023-03-01T15:40:27;33.70;;;17.40;;
67352;SDS011;54238;52.278;21.056;2023-03-01T15:43:06;29.80;;;18.90;;
67352;SDS011;54238;52.278;21.056;2023-03-01T15:45:59;26.10;;;18.10;;
67352;SDS011;54238;52.278;21.056;2023-03-01T15:48:27;38.20;;;19.60;;
67352;SDS011;54238;52.278;21.056;2023-03-01T15:50:58;29.60;;;19.60;;
67352;SDS011;54238;52.278;21.056;2023-03-01T15:53:29;28.30;;;19.20;;
67352;SDS011;54238;52.278;21.056;2023-03-01T15:56:00;30.70;;;20.00;;
67352;SDS011;54238;52.278;21.056;2023-03-01T15:58:30;31.10;;;19.60;;
67352;SDS011;54238;52.278;21.056;2023-03-01T16:00:59;35.60;;;21.10;;
67352;SDS011;54238;52.278;21.056;2023-03-01T16:03:29;43.20;;;21.00;;
67352;SDS011;54238;52.278;21.056;2023-03-01T16:05:56;30.50;;;19.10;;
67352;SDS011;54238;52.278;21.056;2023-03-01T16:08:27;33.80;;;18.70;;
67352;SDS011;54238;52.278;21.056;2023-03-01T16:10:54;37.80;;;20.50;;
67352;SDS011;54238;52.278;21.056;2023-03-01T16:13:27;30.50;;;19.40;;
67352;SDS011;54238;52.278;21.056;2023-03-01T16:15:59;31.40;;;19.20;;
67352;SDS011;54238;52.278;21.056;2023-03-01T16:18:26;35.40;;;17.70;;
67352;SDS011;54238;52.278;21.056;2023-03-01T16:20:53;35.60;;;18.40;;
67352;SDS011;54238;52.278;21.056;2023-03-01T16:23:21;31.60;;;19.90;;
67352;SDS011;54238;52.278;21.056;2023-03-01T16:25:54;34.80;;;19.20;;
67352;SDS011;54238;52.278;21.056;2023-03-01T16:28:21;33.40;;;19.90;;
67352;SDS011;54238;52.278;21.056;2023-03-01T16:30:53;30.50;;;18.80;;
67352;SDS011;54238;52.278;21.056;2023-03-01T16:33:25;32.40;;;19.70;;
67352;SDS011;54238;52.278;21.056;2023-03-01T16:35:52;37.80;;;20.90;;
67352;SDS011;54238;52.278;21.056;2023-03-01T16:38:22;28.80;;;18.70;;
67352;SDS011;54238;52.278;21.056;2023-03-01T16:40:54;34.00;;;19.20;;
67352;SDS011;54238;52.278;21.056;2023-03-01T16:43:28;36.90;;;20.60;;
67352;SDS011;54238;52.278;21.056;2023-03-01T16:45:56;41.00;;;21.70;;
67352;SDS011;54238;52.278;21.056;2023-03-01T16:48:26;38.50;;;22.60;;
67352;SDS011;54238;52.278;21.056;2023-03-01T16:51:00;27.80;;;17.60;;
67352;SDS011;54238;52.278;21.056;2023-03-01T16:53:28;31.50;;;16.90;;
67352;SDS011;54238;52.278;21.056;2023-03-01T16:56:01;30.30;;;16.40;;
67352;SDS011;54238;52.278;21.056;2023-03-01T16:58:30;35.30;;;19.30;;
67352;SDS011;54238;52.278;21.056;2023-03-01T17:01:06;30.60;;;16.00;;
67352;SDS011;54238;52.278;21.056;2023-03-01T17:03:38;34.30;;;18.50;;
67352;SDS011;54238;52.278;21.056;2023-03-01T17:06:09;36.20;;;18.90;;
67352;SDS011;54238;52.278;21.056;2023-03-01T17:08:39;35.20;;;17.90;;
67352;SDS011;54238;52.278;21.056;2023-03-01T17:11:14;49.10;;;20.20;;
67352;SDS011;54238;52.278;21.056;2023-03-01T17:13:48;38.70;;;16.10;;